createdAt,value
2022-11-20T00:02:21.714Z,4.30
2022-11-20T00:04:54.768Z,4.40
2022-11-20T00:07:24.949Z,4.50
2022-11-20T00:10:10.499Z,4.30
2022-11-20T00:12:49.206Z,4.20
2022-11-20T00:15:24.659Z,4.20
2022-11-20T00:17:57.723Z,4.20
2022-11-20T00:20:31.180Z,4.20
2022-11-20T00:23:07.995Z,4.30
2022-11-20T00:25:43.458Z,4.30
2022-11-20T00:28:13.698Z,4.30
2022-11-20T00:30:43.750Z,4.30
2022-11-20T00:33:13.826Z,4.50
2022-11-20T00:35:46.687Z,4.60
2022-11-20T00:38:19.121Z,4.50
2022-11-20T00:41:03.004Z,4.40
2022-11-20T00:43:35.450Z,4.40
2022-11-20T00:46:08.157Z,4.30
2022-11-20T00:48:45.656Z,4.30
2022-11-20T00:51:18.217Z,4.20
2022-11-20T00:53:48.670Z,4.20
2022-11-20T00:56:24.283Z,4.20
2022-11-20T00:58:54.440Z,4.20
2022-11-20T01:01:30.123Z,4.30
2022-11-20T01:04:03.235Z,4.50
2022-11-20T01:06:36.507Z,4.40
2022-11-20T01:09:10.959Z,4.30
2022-11-20T01:11:49.011Z,4.30
2022-11-20T01:14:24.509Z,4.20
2022-11-20T01:16:57.922Z,4.10
2022-11-20T01:19:31.087Z,4.00
2022-11-20T01:22:04.185Z,4.00
2022-11-20T01:24:34.376Z,3.90
2022-11-20T01:27:07.135Z,3.90
2022-11-20T01:29:37.281Z,4.00
2022-11-20T01:32:17.566Z,3.90
2022-11-20T01:34:50.751Z,3.90
2022-11-20T01:37:27.057Z,4.10
2022-11-20T01:39:57.204Z,4.00
2022-11-20T01:42:42.349Z,4.00
2022-11-20T01:45:56.708Z,4.20
2022-11-20T01:48:30.870Z,4.40
2022-11-20T01:51:02.818Z,4.40
2022-11-20T01:53:39.802Z,4.40
2022-11-20T01:56:18.584Z,4.30
2022-11-20T01:58:59.682Z,4.10
2022-11-20T02:01:30.029Z,4.00
2022-11-20T02:04:02.729Z,4.10
2022-11-20T02:06:39.768Z,4.20
2022-11-20T02:09:09.923Z,4.10
2022-11-20T02:11:40.188Z,4.20
2022-11-20T02:14:11.354Z,4.10
2022-11-20T02:16:48.614Z,4.10
2022-11-20T02:19:30.517Z,4.00
2022-11-20T02:22:09.393Z,3.90
2022-11-20T02:24:43.499Z,3.80
2022-11-20T02:27:16.757Z,3.80
2022-11-20T02:29:54.021Z,3.70
2022-11-20T02:32:25.823Z,3.70
2022-11-20T02:34:56.419Z,3.80
2022-11-20T02:37:31.966Z,3.90
2022-11-20T02:40:07.155Z,4.00
2022-11-20T02:42:37.382Z,4.00
2022-11-20T02:45:09.486Z,4.10
2022-11-20T02:47:39.749Z,4.10
2022-11-20T02:50:16.120Z,4.20
2022-11-20T02:52:48.651Z,4.20
2022-11-20T02:55:21.711Z,4.30
2022-11-20T02:57:54.245Z,4.30
2022-11-20T03:00:24.528Z,4.10
2022-11-20T03:02:54.779Z,3.90
2022-11-20T03:05:24.996Z,3.70
2022-11-20T03:07:57.367Z,3.70
2022-11-20T03:10:30.087Z,3.70
2022-11-20T03:13:00.609Z,3.80
2022-11-20T03:15:39.169Z,3.70
2022-11-20T03:18:14.589Z,3.60
2022-11-20T03:20:44.612Z,3.60
2022-11-20T03:23:15.384Z,3.50
2022-11-20T03:25:48.010Z,3.50
2022-11-20T03:28:18.152Z,3.50
2022-11-20T03:30:48.740Z,3.50
2022-11-20T03:33:21.425Z,3.50
2022-11-20T03:35:51.452Z,3.50
2022-11-20T03:38:23.882Z,3.50
2022-11-20T03:41:06.676Z,3.60
2022-11-20T03:43:37.222Z,3.50
2022-11-20T03:46:11.568Z,3.50
2022-11-20T03:48:45.379Z,3.60
2022-11-20T03:51:21.430Z,3.60
2022-11-20T03:53:54.358Z,3.70
2022-11-20T03:56:30.064Z,3.70
2022-11-20T03:59:00.838Z,3.70
2022-11-20T04:01:34.151Z,3.80
2022-11-20T04:04:04.995Z,3.90
2022-11-20T04:06:39.546Z,4.00
2022-11-20T04:09:24.369Z,4.10
2022-11-20T04:11:57.576Z,4.10
2022-11-20T04:14:27.835Z,4.10
2022-11-20T04:16:58.020Z,4.10
2022-11-20T04:19:28.226Z,4.10
2022-11-20T04:21:58.469Z,3.90
2022-11-20T04:24:31.849Z,3.90
2022-11-20T04:27:12.705Z,3.90
2022-11-20T04:29:48.682Z,3.90
2022-11-20T04:32:18.791Z,3.90
2022-11-20T04:34:51.650Z,3.80
2022-11-20T04:37:23.247Z,3.80
2022-11-20T04:39:53.338Z,3.80
2022-11-20T04:42:34.402Z,3.80
2022-11-20T04:45:14.242Z,3.80
2022-11-20T04:47:44.410Z,3.80
2022-11-20T04:50:14.868Z,3.80
2022-11-20T04:52:45.028Z,3.80
2022-11-20T04:55:15.117Z,3.90
2022-11-20T04:57:47.968Z,4.00
2022-11-20T05:00:25.914Z,4.00
2022-11-20T05:02:56.147Z,4.00
2022-11-20T05:05:26.866Z,4.00
2022-11-20T05:07:59.835Z,4.00
2022-11-20T05:10:31.199Z,4.00
2022-11-20T05:13:04.280Z,4.00
2022-11-20T05:15:34.489Z,4.10
2022-11-20T05:18:08.397Z,4.00
2022-11-20T05:20:39.928Z,4.10
2022-11-20T05:23:10.269Z,4.00
2022-11-20T05:25:40.612Z,3.80
2022-11-20T05:28:15.128Z,3.70
2022-11-20T05:30:48.223Z,3.70
2022-11-20T05:33:19.067Z,3.70
2022-11-20T05:35:49.570Z,3.70
2022-11-20T05:38:19.793Z,3.70
2022-11-20T05:40:52.379Z,3.70
2022-11-20T05:43:25.126Z,3.70
2022-11-20T05:45:58.311Z,3.70
2022-11-20T05:48:29.342Z,3.70
2022-11-20T05:51:01.876Z,3.80
2022-11-20T05:53:32.399Z,3.80
2022-11-20T05:56:04.170Z,3.80
2022-11-20T05:58:37.466Z,3.80
2022-11-20T06:01:20.493Z,3.90
2022-11-20T06:03:51.966Z,3.90
2022-11-20T06:06:26.964Z,3.90
2022-11-20T06:08:59.949Z,3.90
2022-11-20T06:11:30.067Z,3.90
2022-11-20T06:14:02.772Z,3.90
2022-11-20T06:16:32.842Z,3.90
2022-11-20T06:19:02.983Z,4.20
2022-11-20T06:21:33.063Z,4.40
2022-11-20T06:24:12.322Z,4.40
2022-11-20T06:26:42.407Z,4.20
2022-11-20T06:29:15.616Z,4.20
2022-11-20T06:31:48.535Z,4.40
2022-11-20T06:34:21.875Z,4.50
2022-11-20T06:36:51.903Z,4.60
2022-11-20T06:39:22.401Z,4.60
2022-11-20T06:41:58.807Z,4.40
2022-11-20T06:44:35.126Z,4.50
2022-11-20T06:47:05.186Z,4.40
2022-11-20T06:49:39.508Z,4.40
2022-11-20T06:52:12.448Z,4.30
2022-11-20T06:54:42.579Z,4.10
2022-11-20T06:57:12.631Z,4.30
2022-11-20T06:59:45.333Z,4.40
2022-11-20T07:02:16.277Z,4.50
2022-11-20T07:04:50.716Z,4.60
2022-11-20T07:07:24.649Z,4.70
2022-11-20T07:09:56.845Z,4.50
2022-11-20T07:12:29.598Z,4.30
2022-11-20T07:15:02.357Z,4.20
2022-11-20T07:17:32.467Z,4.10
2022-11-20T07:20:02.891Z,4.20
2022-11-20T07:22:38.755Z,4.20
2022-11-20T07:25:19.070Z,4.10
2022-11-20T07:27:51.668Z,4.10
2022-11-20T07:30:31.370Z,4.10
2022-11-20T07:33:04.526Z,4.00
2022-11-20T07:35:41.854Z,4.00
2022-11-20T07:38:12.274Z,4.10
2022-11-20T07:40:45.291Z,4.10
2022-11-20T07:43:15.841Z,4.10
2022-11-20T07:45:48.481Z,4.20
2022-11-20T07:48:21.879Z,4.20
2022-11-20T07:50:53.503Z,4.30
2022-11-20T07:53:24.273Z,4.30
2022-11-20T07:55:58.091Z,4.30
2022-11-20T07:58:37.651Z,4.30
2022-11-20T08:01:13.056Z,4.30
2022-11-20T08:03:43.346Z,4.30
2022-11-20T08:06:13.434Z,4.30
2022-11-20T08:08:46.394Z,4.40
2022-11-20T08:11:28.902Z,4.40
2022-11-20T08:14:11.648Z,4.40
2022-11-20T08:16:46.722Z,4.60
2022-11-20T08:19:21.404Z,4.70
2022-11-20T08:21:51.749Z,4.60
2022-11-20T08:24:21.846Z,4.50
2022-11-20T08:26:54.358Z,4.50
2022-11-20T08:29:30.204Z,4.70
2022-11-20T08:32:02.985Z,4.80
2022-11-20T08:34:43.480Z,5.10
2022-11-20T08:37:13.584Z,5.30
2022-11-20T08:39:44.282Z,5.40
2022-11-20T08:42:14.790Z,5.50
2022-11-20T08:44:50.470Z,5.50
2022-11-20T08:47:23.373Z,5.60
2022-11-20T08:49:53.436Z,5.60
2022-11-20T08:52:23.548Z,5.60
2022-11-20T08:54:53.700Z,5.60
2022-11-20T08:57:24.685Z,5.50
2022-11-20T09:00:10.490Z,5.60
2022-11-20T09:02:43.424Z,5.60
2022-11-20T09:05:19.251Z,5.50
2022-11-20T09:07:55.546Z,5.50
2022-11-20T09:10:25.708Z,5.50
2022-11-20T09:13:04.611Z,5.30
2022-11-20T09:15:38.336Z,5.30
2022-11-20T09:18:11.856Z,5.40
2022-11-20T09:20:42.049Z,5.30
2022-11-20T09:23:12.721Z,5.40
2022-11-20T09:25:42.840Z,5.50
2022-11-20T09:28:18.011Z,5.70
2022-11-20T09:30:48.356Z,5.80
2022-11-20T09:33:21.447Z,6.10
2022-11-20T09:35:51.944Z,6.20
2022-11-20T09:38:30.913Z,6.20
2022-11-20T09:41:11.735Z,6.30
2022-11-20T09:44:01.600Z,6.70
2022-11-20T09:46:44.837Z,6.90
2022-11-20T09:49:36.483Z,7.00
2022-11-20T09:52:25.983Z,7.10
2022-11-20T09:54:58.614Z,6.90
2022-11-20T09:57:39.452Z,7.40
2022-11-20T10:00:15.367Z,8.00
2022-11-20T10:02:53.706Z,8.10
2022-11-20T10:05:35.167Z,8.80
2022-11-20T10:08:20.422Z,8.90
2022-11-20T10:10:57.270Z,8.50
2022-11-20T10:13:46.937Z,8.50
2022-11-20T10:16:39.535Z,8.40
2022-11-20T10:19:43.970Z,7.70
2022-11-20T10:22:44.148Z,7.60
2022-11-20T10:25:21.636Z,7.40
2022-11-20T10:28:26.628Z,7.10
2022-11-20T10:31:13.627Z,6.90
2022-11-20T10:34:11.630Z,6.40
2022-11-20T10:36:50.715Z,6.40
2022-11-20T10:39:34.986Z,6.20
2022-11-20T10:42:17.192Z,6.30
2022-11-20T10:45:07.812Z,6.40
2022-11-20T10:47:38.144Z,6.50
2022-11-20T10:50:20.550Z,6.50
2022-11-20T10:53:11.347Z,6.60
2022-11-20T10:55:58.801Z,6.60
2022-11-20T10:58:42.690Z,6.80
2022-11-20T11:01:24.456Z,6.80
2022-11-20T11:03:56.706Z,7.00
2022-11-20T11:06:38.195Z,7.00
2022-11-20T11:09:24.713Z,7.10
2022-11-20T11:12:05.764Z,7.10
2022-11-20T11:14:48.295Z,6.90
2022-11-20T11:17:31.875Z,6.90
2022-11-20T11:20:18.762Z,7.00
2022-11-20T11:22:51.637Z,6.80
2022-11-20T11:25:34.544Z,6.70
2022-11-20T11:28:23.443Z,6.70
2022-11-20T11:30:53.575Z,6.80
2022-11-20T11:33:26.836Z,6.80
2022-11-20T11:36:03.171Z,6.60
2022-11-20T11:38:40.371Z,6.70
2022-11-20T11:41:29.383Z,6.70
2022-11-20T11:44:21.023Z,6.90
2022-11-20T11:46:58.963Z,6.80
2022-11-20T11:49:29.086Z,6.70
2022-11-20T11:52:15.934Z,6.50
2022-11-20T11:54:55.305Z,6.40
2022-11-20T11:57:52.030Z,6.50
2022-11-20T12:00:26.636Z,6.60
2022-11-20T12:03:13.802Z,6.70
2022-11-20T12:05:50.189Z,6.80
2022-11-20T12:08:29.125Z,6.70
2022-11-20T12:11:10.062Z,6.80
2022-11-20T12:13:57.715Z,6.80
2022-11-20T12:16:32.871Z,7.00
2022-11-20T12:19:05.504Z,7.40
2022-11-20T12:22:01.902Z,7.60
2022-11-20T12:24:53.322Z,7.70
2022-11-20T12:27:51.273Z,8.00
2022-11-20T12:30:23.323Z,8.00
2022-11-20T12:33:20.003Z,7.70
2022-11-20T12:36:21.119Z,7.50
2022-11-20T12:39:27.539Z,7.50
2022-11-20T12:42:41.247Z,7.40
2022-11-20T12:45:48.032Z,7.50
2022-11-20T12:48:47.893Z,7.60
2022-11-20T12:52:10.747Z,7.60
2022-11-20T12:55:17.664Z,7.70
2022-11-20T12:57:57.129Z,7.70
2022-11-20T13:00:28.468Z,7.60
2022-11-20T13:03:41.700Z,7.70
2022-11-20T13:06:21.061Z,7.60
2022-11-20T13:08:57.938Z,7.60
2022-11-20T13:11:40.439Z,7.60
2022-11-20T13:17:34.074Z,7.80
2022-11-20T13:20:23.342Z,7.80
2022-11-20T13:22:59.823Z,7.90
2022-11-20T13:25:32.462Z,8.00
2022-11-20T13:28:06.387Z,8.10
2022-11-20T13:30:38.707Z,7.90
2022-11-20T13:33:20.556Z,7.70
2022-11-20T13:36:01.515Z,7.70
2022-11-20T13:38:44.184Z,7.50
2022-11-20T13:41:26.834Z,7.40
2022-11-20T13:44:03.101Z,7.40
2022-11-20T13:46:51.702Z,7.40
2022-11-20T13:49:29.924Z,7.50
2022-11-20T13:52:35.210Z,7.60
2022-11-20T13:55:22.417Z,7.70
2022-11-20T13:58:16.586Z,7.70
2022-11-20T14:00:56.944Z,7.70
2022-11-20T14:04:04.592Z,7.60
2022-11-20T14:06:33.459Z,7.70
2022-11-20T14:09:06.486Z,7.70
2022-11-20T14:11:36.562Z,7.70
2022-11-20T14:14:19.718Z,7.70
2022-11-20T14:16:51.437Z,7.80
2022-11-20T14:19:35.247Z,7.90
2022-11-20T14:22:22.497Z,7.90
2022-11-20T14:25:22.628Z,7.90
2022-11-20T14:27:57.621Z,7.90
2022-11-20T14:30:30.751Z,7.90
2022-11-20T14:33:08.170Z,7.80
2022-11-20T14:35:49.218Z,7.80
2022-11-20T14:38:25.915Z,7.80
2022-11-20T14:41:13.434Z,7.80
2022-11-20T14:43:48.962Z,7.80
2022-11-20T14:46:19.893Z,7.80
2022-11-20T14:48:53.056Z,7.80
2022-11-20T14:51:37.840Z,7.80
2022-11-20T14:54:20.197Z,7.80
2022-11-20T14:57:02.947Z,7.80
2022-11-20T14:59:35.733Z,7.90
2022-11-20T15:02:10.172Z,8.00
2022-11-20T15:04:49.806Z,8.10
2022-11-20T15:07:32.498Z,8.10
2022-11-20T15:10:28.827Z,8.10
2022-11-20T15:13:16.400Z,8.00
2022-11-20T15:15:51.346Z,8.00
2022-11-20T15:18:25.394Z,7.90
2022-11-20T15:21:00.310Z,7.90
2022-11-20T15:23:31.683Z,7.80
2022-11-20T15:26:07.729Z,7.80
2022-11-20T15:28:48.963Z,7.60
2022-11-20T15:31:22.627Z,7.70
2022-11-20T15:33:53.375Z,7.60
2022-11-20T15:36:31.090Z,7.50
2022-11-20T15:39:02.140Z,7.50
2022-11-20T15:41:32.268Z,7.50
2022-11-20T15:44:08.136Z,7.40
2022-11-20T15:46:47.344Z,7.40
2022-11-20T15:49:20.015Z,7.40
2022-11-20T15:51:54.934Z,7.30
2022-11-20T15:54:26.888Z,7.20
2022-11-20T15:56:57.191Z,7.40
2022-11-20T15:59:38.286Z,7.30
2022-11-20T16:02:19.342Z,7.20
2022-11-20T16:04:52.915Z,7.30
2022-11-20T16:07:25.911Z,7.20
2022-11-20T16:10:01.473Z,7.30
2022-11-20T16:12:47.118Z,7.30
2022-11-20T16:15:35.351Z,7.20
2022-11-20T16:18:05.376Z,7.00
2022-11-20T16:20:35.561Z,7.00
2022-11-20T16:23:12.285Z,6.90
2022-11-20T16:25:45.466Z,7.00
2022-11-20T16:28:19.063Z,7.00
2022-11-20T16:30:59.447Z,7.10
2022-11-20T16:33:29.530Z,7.10
2022-11-20T16:36:10.605Z,7.20
2022-11-20T16:38:44.430Z,7.10
2022-11-20T16:41:17.463Z,7.10
2022-11-20T16:43:53.563Z,7.10
2022-11-20T16:46:28.199Z,6.90
2022-11-20T16:49:00.706Z,6.90
2022-11-20T16:51:35.997Z,6.90
2022-11-20T16:54:07.546Z,6.90
2022-11-20T16:56:38.092Z,6.90
2022-11-20T16:59:08.757Z,6.90
2022-11-20T17:01:43.181Z,6.90
2022-11-20T17:04:13.764Z,6.90
2022-11-20T17:06:47.871Z,6.90
2022-11-20T17:09:18.323Z,6.90
2022-11-20T17:11:48.442Z,6.80
2022-11-20T17:14:21.477Z,6.80
2022-11-20T17:16:57.051Z,6.90
2022-11-20T17:19:30.254Z,6.90
2022-11-20T17:22:00.351Z,6.90
2022-11-20T17:24:32.008Z,7.00
2022-11-20T17:27:02.478Z,7.00
2022-11-20T17:29:36.621Z,7.00
2022-11-20T17:32:12.048Z,6.90
2022-11-20T17:34:42.099Z,7.00
2022-11-20T17:37:12.189Z,7.10
2022-11-20T17:39:42.479Z,7.10
2022-11-20T17:42:25.007Z,7.10
2022-11-20T17:44:59.445Z,7.20
2022-11-20T17:47:37.666Z,7.20
2022-11-20T17:50:09.096Z,7.20
2022-11-20T17:52:39.178Z,7.30
2022-11-20T17:55:11.051Z,7.40
2022-11-20T17:57:53.656Z,7.30
2022-11-20T18:00:25.161Z,7.40
2022-11-20T18:03:05.341Z,7.40
2022-11-20T18:05:35.435Z,7.40
2022-11-20T18:08:08.447Z,7.40
2022-11-20T18:10:38.619Z,7.40
2022-11-20T18:13:08.727Z,7.40
2022-11-20T18:15:38.767Z,7.40
2022-11-20T18:18:11.519Z,7.40
2022-11-20T18:20:41.578Z,7.40
2022-11-20T18:23:17.875Z,7.40
2022-11-20T18:25:47.966Z,7.40
2022-11-20T18:28:19.893Z,7.40
2022-11-20T18:30:49.999Z,7.40
2022-11-20T18:33:28.130Z,7.40
2022-11-20T18:35:58.581Z,7.40
2022-11-20T18:38:28.872Z,7.50
2022-11-20T18:41:03.603Z,7.50
2022-11-20T18:43:46.361Z,7.60
2022-11-20T18:46:16.457Z,7.60
2022-11-20T18:48:49.203Z,7.80
2022-11-20T18:51:19.240Z,7.80
2022-11-20T18:53:49.343Z,7.90
2022-11-20T18:56:26.727Z,8.00
2022-11-20T18:59:00.364Z,7.90
2022-11-20T19:01:32.253Z,7.90
2022-11-20T19:04:09.201Z,7.90
2022-11-20T19:06:40.007Z,7.80
2022-11-20T19:09:12.084Z,7.70
2022-11-20T19:11:43.610Z,7.80
2022-11-20T19:14:16.627Z,7.90
2022-11-20T19:16:46.663Z,8.00
2022-11-20T19:19:19.404Z,7.90
2022-11-20T19:21:49.522Z,7.90
2022-11-20T19:24:22.677Z,7.90
2022-11-20T19:26:52.764Z,7.80
2022-11-20T19:29:28.770Z,7.80
2022-11-20T19:31:59.000Z,7.70
2022-11-20T19:34:34.501Z,7.80
2022-11-20T19:37:05.215Z,7.80
2022-11-20T19:39:36.290Z,7.70
2022-11-20T19:42:14.369Z,7.60
2022-11-20T19:44:44.472Z,7.60
2022-11-20T19:47:15.045Z,7.70
2022-11-20T19:49:50.980Z,7.70
2022-11-20T19:52:21.124Z,7.80
2022-11-20T19:54:51.670Z,8.00
2022-11-20T19:57:21.722Z,8.10
2022-11-20T19:59:52.553Z,8.10
2022-11-20T20:02:22.684Z,8.10
2022-11-20T20:05:01.194Z,8.20
2022-11-20T20:07:33.585Z,8.20
2022-11-20T20:10:03.749Z,8.20
2022-11-20T20:12:41.259Z,8.30
2022-11-20T20:15:15.139Z,8.30
2022-11-20T20:17:47.711Z,8.20
2022-11-20T20:20:20.665Z,8.20
2022-11-20T20:22:50.816Z,8.30
2022-11-20T20:25:21.328Z,8.30
2022-11-20T20:27:51.463Z,8.40
2022-11-20T20:30:21.673Z,8.30
2022-11-20T20:32:56.028Z,8.30
2022-11-20T20:35:31.538Z,8.30
2022-11-20T20:38:01.683Z,8.30
2022-11-20T20:40:31.744Z,8.40
2022-11-20T20:43:01.842Z,8.40
2022-11-20T20:45:35.054Z,8.40
2022-11-20T20:48:05.151Z,8.20
2022-11-20T20:50:41.249Z,8.30
2022-11-20T20:53:11.469Z,8.20
2022-11-20T20:55:44.575Z,8.20
2022-11-20T20:58:14.665Z,8.20
2022-11-20T21:00:44.732Z,8.20
2022-11-20T21:03:20.544Z,8.10
2022-11-20T21:05:59.505Z,8.10
2022-11-20T21:08:30.966Z,8.10
2022-11-20T21:11:07.228Z,8.10
2022-11-20T21:13:54.312Z,8.00
2022-11-20T21:16:25.130Z,8.10
2022-11-20T21:18:57.443Z,8.10
2022-11-20T21:21:42.519Z,8.00
2022-11-20T21:24:12.596Z,7.90
2022-11-20T21:26:42.678Z,7.90
2022-11-20T21:29:16.185Z,7.90
2022-11-20T21:31:50.219Z,7.90
2022-11-20T21:34:23.609Z,7.80
2022-11-20T21:36:58.773Z,7.80
2022-11-20T21:39:30.430Z,7.80
2022-11-20T21:42:00.483Z,7.80
2022-11-20T21:44:31.952Z,7.80
2022-11-20T21:47:02.848Z,7.80
2022-11-20T21:49:35.484Z,7.90
2022-11-20T21:52:08.571Z,7.90
2022-11-20T21:54:39.503Z,7.80
2022-11-20T21:57:10.088Z,7.80
2022-11-20T21:59:40.242Z,7.80
2022-11-20T22:02:13.782Z,7.80
2022-11-20T22:04:47.117Z,7.80
2022-11-20T22:07:24.719Z,7.80
2022-11-20T22:09:56.016Z,7.80
2022-11-20T22:12:29.560Z,7.90
2022-11-20T22:15:00.042Z,7.90
2022-11-20T22:17:45.539Z,7.90
2022-11-20T22:20:19.478Z,7.90
2022-11-20T22:22:53.429Z,7.90
2022-11-20T22:25:23.982Z,7.90
2022-11-20T22:27:54.036Z,7.90
2022-11-20T22:30:26.319Z,8.00
2022-11-20T22:32:56.728Z,7.90
2022-11-20T22:35:32.767Z,7.90
2022-11-20T22:38:07.776Z,7.80
2022-11-20T22:40:38.555Z,7.90
2022-11-20T22:43:09.022Z,7.90
2022-11-20T22:45:39.142Z,8.00
2022-11-20T22:48:09.676Z,7.90
2022-11-20T22:50:44.666Z,7.90
2022-11-20T22:53:26.429Z,7.90
2022-11-20T22:55:56.665Z,7.90
2022-11-20T22:58:32.181Z,7.90
2022-11-20T23:01:15.566Z,7.90
2022-11-20T23:03:48.905Z,8.00
2022-11-20T23:06:24.085Z,8.00
2022-11-20T23:08:57.249Z,8.00
2022-11-20T23:11:38.247Z,8.00
2022-11-20T23:14:11.277Z,8.00
2022-11-20T23:16:41.562Z,8.00
2022-11-20T23:19:14.891Z,8.00
2022-11-20T23:21:46.186Z,8.00
2022-11-20T23:24:20.194Z,8.00
2022-11-20T23:26:51.186Z,8.00
2022-11-20T23:29:21.538Z,8.10
2022-11-20T23:31:52.074Z,8.10
2022-11-20T23:34:29.463Z,8.10
2022-11-20T23:37:06.051Z,8.00
2022-11-20T23:39:39.755Z,8.10
2022-11-20T23:42:14.423Z,8.00
2022-11-20T23:44:45.004Z,8.00
2022-11-20T23:47:17.695Z,8.00
2022-11-20T23:49:48.951Z,7.90
2022-11-20T23:52:19.997Z,7.90
2022-11-20T23:54:58.626Z,7.90
2022-11-20T23:57:36.433Z,7.90
